sensor_id;sensor_type;location;lat;lon;timestamp;pressure;altitude;pressure_sealevel;temperature
73685;BMP280;61985;51.070;14.064;2024-02-26T00:01:32;97380.19;;;1.02
73685;BMP280;61985;51.070;14.064;2024-02-26T00:03:59;97379.03;;;1.10
73685;BMP280;61985;51.070;14.064;2024-02-26T00:06:25;97378.34;;;0.88
73685;BMP280;61985;51.070;14.064;2024-02-26T00:08:50;97379.84;;;0.93
73685;BMP280;61985;51.070;14.064;2024-02-26T00:11:16;97366.63;;;0.82
73685;BMP280;61985;51.070;14.064;2024-02-26T00:13:41;97371.16;;;0.85
73685;BMP280;61985;51.070;14.064;2024-02-26T00:16:06;97363.25;;;0.63
73685;BMP280;61985;51.070;14.064;2024-02-26T00:18:32;97364.78;;;0.64
73685;BMP280;61985;51.070;14.064;2024-02-26T00:20:58;97353.06;;;0.58
73685;BMP280;61985;51.070;14.064;2024-02-26T00:23:24;97353.06;;;0.58
73685;BMP280;61985;51.070;14.064;2024-02-26T00:25:49;97351.84;;;0.81
73685;BMP280;61985;51.070;14.064;2024-02-26T00:28:14;97358.72;;;0.67
73685;BMP280;61985;51.070;14.064;2024-02-26T00:30:40;97349.63;;;0.68
73685;BMP280;61985;51.070;14.064;2024-02-26T00:33:05;97343.13;;;0.84
73685;BMP280;61985;51.070;14.064;2024-02-26T00:35:31;97341.59;;;0.90
73685;BMP280;61985;51.070;14.064;2024-02-26T00:37:56;97343.00;;;1.13
73685;BMP280;61985;51.070;14.064;2024-02-26T00:40:22;97343.44;;;1.00
73685;BMP280;61985;51.070;14.064;2024-02-26T00:42:47;97348.00;;;1.00
73685;BMP280;61985;51.070;14.064;2024-02-26T00:45:13;97342.38;;;0.87
73685;BMP280;61985;51.070;14.064;2024-02-26T00:47:39;97354.03;;;1.00
73685;BMP280;61985;51.070;14.064;2024-02-26T00:50:07;97333.88;;;1.21
73685;BMP280;61985;51.070;14.064;2024-02-26T00:52:33;97337.09;;;1.47
73685;BMP280;61985;51.070;14.064;2024-02-26T00:54:59;97341.22;;;1.55
73685;BMP280;61985;51.070;14.064;2024-02-26T00:57:24;97339.03;;;1.46
73685;BMP280;61985;51.070;14.064;2024-02-26T00:59:50;97335.94;;;1.51
73685;BMP280;61985;51.070;14.064;2024-02-26T01:02:16;97331.38;;;1.55
73685;BMP280;61985;51.070;14.064;2024-02-26T01:04:41;97330.59;;;1.55
73685;BMP280;61985;51.070;14.064;2024-02-26T01:07:06;97332.88;;;1.60
73685;BMP280;61985;51.070;14.064;2024-02-26T01:09:32;97326.03;;;1.59
73685;BMP280;61985;51.070;14.064;2024-02-26T01:11:57;97335.13;;;1.58
73685;BMP280;61985;51.070;14.064;2024-02-26T01:14:22;97328.66;;;1.66
73685;BMP280;61985;51.070;14.064;2024-02-26T01:16:48;97331.38;;;1.55
73685;BMP280;61985;51.070;14.064;2024-02-26T01:19:14;97322.28;;;1.53
73685;BMP280;61985;51.070;14.064;2024-02-26T01:21:39;97324.25;;;1.38
73685;BMP280;61985;51.070;14.064;2024-02-26T01:24:05;97325.16;;;1.24
73685;BMP280;61985;51.070;14.064;2024-02-26T01:26:30;97320.94;;;1.26
73685;BMP280;61985;51.070;14.064;2024-02-26T01:28:56;97316.06;;;1.21
73685;BMP280;61985;51.070;14.064;2024-02-26T01:31:21;97319.84;;;1.20
73685;BMP280;61985;51.070;14.064;2024-02-26T01:33:46;97317.56;;;1.26
73685;BMP280;61985;51.070;14.064;2024-02-26T01:36:12;97315.63;;;1.34
73685;BMP280;61985;51.070;14.064;2024-02-26T01:38:37;97311.78;;;1.38
73685;BMP280;61985;51.070;14.064;2024-02-26T01:41:03;97296.16;;;1.44
73685;BMP280;61985;51.070;14.064;2024-02-26T01:43:28;97293.44;;;1.55
73685;BMP280;61985;51.070;14.064;2024-02-26T01:45:54;97294.59;;;1.54
73685;BMP280;61985;51.070;14.064;2024-02-26T01:48:20;97288.91;;;1.52
73685;BMP280;61985;51.070;14.064;2024-02-26T01:50:45;97283.69;;;1.41
73685;BMP280;61985;51.070;14.064;2024-02-26T01:53:11;97287.81;;;1.45
73685;BMP280;61985;51.070;14.064;2024-02-26T01:55:37;97278.00;;;1.39
73685;BMP280;61985;51.070;14.064;2024-02-26T01:58:03;97276.56;;;1.34
73685;BMP280;61985;51.070;14.064;2024-02-26T02:00:28;97265.13;;;1.37
73685;BMP280;61985;51.070;14.064;2024-02-26T02:02:54;97270.78;;;1.43
73685;BMP280;61985;51.070;14.064;2024-02-26T02:05:20;97272.28;;;1.44
73685;BMP280;61985;51.070;14.064;2024-02-26T02:07:46;97266.22;;;1.43
73685;BMP280;61985;51.070;14.064;2024-02-26T02:10:15;97270.41;;;1.41
73685;BMP280;61985;51.070;14.064;2024-02-26T02:12:40;97266.22;;;1.43
73685;BMP280;61985;51.070;14.064;2024-02-26T02:15:06;97269.22;;;1.49
73685;BMP280;61985;51.070;14.064;2024-02-26T02:17:32;97267.31;;;1.50
73685;BMP280;61985;51.070;14.064;2024-02-26T02:19:57;97257.84;;;1.49
73685;BMP280;61985;51.070;14.064;2024-02-26T02:22:23;97260.13;;;1.47
73685;BMP280;61985;51.070;14.064;2024-02-26T02:24:49;97262.03;;;1.46
73685;BMP280;61985;51.070;14.064;2024-02-26T02:27:14;97261.28;;;1.45
73685;BMP280;61985;51.070;14.064;2024-02-26T02:29:41;97251.06;;;1.44
73685;BMP280;61985;51.070;14.064;2024-02-26T02:32:06;97256.75;;;1.46
73685;BMP280;61985;51.070;14.064;2024-02-26T02:34:32;97257.97;;;1.34
73685;BMP280;61985;51.070;14.064;2024-02-26T02:36:59;97253.81;;;1.33
73685;BMP280;61985;51.070;14.064;2024-02-26T02:39:24;97251.94;;;1.34
73685;BMP280;61985;51.070;14.064;2024-02-26T02:41:50;97257.28;;;1.30
73685;BMP280;61985;51.070;14.064;2024-02-26T02:44:15;97253.50;;;1.24
73685;BMP280;61985;51.070;14.064;2024-02-26T02:46:41;97258.44;;;1.25
73685;BMP280;61985;51.070;14.064;2024-02-26T02:49:10;97252.34;;;1.29
73685;BMP280;61985;51.070;14.064;2024-02-26T02:51:36;97263.72;;;1.29
73685;BMP280;61985;51.070;14.064;2024-02-26T02:54:01;97250.44;;;1.29
73685;BMP280;61985;51.070;14.064;2024-02-26T02:56:27;97259.53;;;1.32
73685;BMP280;61985;51.070;14.064;2024-02-26T02:58:52;97255.75;;;1.29
73685;BMP280;61985;51.070;14.064;2024-02-26T03:01:18;97250.44;;;1.29
73685;BMP280;61985;51.070;14.064;2024-02-26T03:03:43;97253.09;;;1.29
73685;BMP280;61985;51.070;14.064;2024-02-26T03:06:09;97255.78;;;1.25
73685;BMP280;61985;51.070;14.064;2024-02-26T03:08:34;97256.53;;;1.26
73685;BMP280;61985;51.070;14.064;2024-02-26T03:11:03;97254.22;;;1.28
73685;BMP280;61985;51.070;14.064;2024-02-26T03:13:29;97253.91;;;1.22
73685;BMP280;61985;51.070;14.064;2024-02-26T03:15:54;97256.19;;;1.24
73685;BMP280;61985;51.070;14.064;2024-02-26T03:18:20;97261.84;;;1.26
73685;BMP280;61985;51.070;14.064;2024-02-26T03:20:45;97259.91;;;1.30
73685;BMP280;61985;51.070;14.064;2024-02-26T03:23:11;97253.44;;;1.31
73685;BMP280;61985;51.070;14.064;2024-02-26T03:25:41;97250.34;;;1.36
73685;BMP280;61985;51.070;14.064;2024-02-26T03:28:06;97256.47;;;1.33
73685;BMP280;61985;51.070;14.064;2024-02-26T03:30:31;97261.41;;;1.31
73685;BMP280;61985;51.070;14.064;2024-02-26T03:32:57;97253.84;;;1.30
73685;BMP280;61985;51.070;14.064;2024-02-26T03:35:22;97249.34;;;1.23
73685;BMP280;61985;51.070;14.064;2024-02-26T03:37:48;97255.03;;;1.21
73685;BMP280;61985;51.070;14.064;2024-02-26T03:40:15;97262.25;;;1.17
73685;BMP280;61985;51.070;14.064;2024-02-26T03:42:40;97278.97;;;1.11
73685;BMP280;61985;51.070;14.064;2024-02-26T03:45:06;97264.59;;;1.08
73685;BMP280;61985;51.070;14.064;2024-02-26T03:47:31;97275.59;;;1.06
73685;BMP280;61985;51.070;14.064;2024-02-26T03:49:57;97269.91;;;1.08
73685;BMP280;61985;51.070;14.064;2024-02-26T03:52:24;97269.88;;;1.12
73685;BMP280;61985;51.070;14.064;2024-02-26T03:54:49;97273.97;;;1.23
73685;BMP280;61985;51.070;14.064;2024-02-26T03:57:15;97282.31;;;1.22
73685;BMP280;61985;51.070;14.064;2024-02-26T03:59:40;97287.66;;;1.18
73685;BMP280;61985;51.070;14.064;2024-02-26T04:02:06;97285.38;;;1.17
73685;BMP280;61985;51.070;14.064;2024-02-26T04:04:34;97294.94;;;1.07
73685;BMP280;61985;51.070;14.064;2024-02-26T04:06:59;97290.78;;;1.02
73685;BMP280;61985;51.070;14.064;2024-02-26T04:09:24;97302.53;;;1.01
73685;BMP280;61985;51.070;14.064;2024-02-26T04:11:50;97301.41;;;0.95
73685;BMP280;61985;51.070;14.064;2024-02-26T04:14:15;97308.25;;;0.96
73685;BMP280;61985;51.070;14.064;2024-02-26T04:16:40;97304.91;;;0.78
73685;BMP280;61985;51.070;14.064;2024-02-26T04:19:06;97308.34;;;0.67
73685;BMP280;61985;51.070;14.064;2024-02-26T04:21:32;97306.47;;;0.57
73685;BMP280;61985;51.070;14.064;2024-02-26T04:23:57;97303.06;;;0.57
73685;BMP280;61985;51.070;14.064;2024-02-26T04:26:26;97302.31;;;0.60
73685;BMP280;61985;51.070;14.064;2024-02-26T04:28:51;97310.25;;;0.60
73685;BMP280;61985;51.070;14.064;2024-02-26T04:31:18;97312.53;;;0.54
73685;BMP280;61985;51.070;14.064;2024-02-26T04:33:43;97311.41;;;0.55
73685;BMP280;61985;51.070;14.064;2024-02-26T04:36:15;97314.81;;;0.52
73685;BMP280;61985;51.070;14.064;2024-02-26T04:38:44;97309.50;;;0.59
73685;BMP280;61985;51.070;14.064;2024-02-26T04:41:09;97310.66;;;0.58
73685;BMP280;61985;51.070;14.064;2024-02-26T04:43:36;97316.72;;;0.55
73685;BMP280;61985;51.070;14.064;2024-02-26T04:46:09;97312.94;;;0.49
73685;BMP280;61985;51.070;14.064;2024-02-26T04:48:38;97318.63;;;0.44
73685;BMP280;61985;51.070;14.064;2024-02-26T04:51:04;97317.03;;;0.68
73685;BMP280;61985;51.070;14.064;2024-02-26T04:53:30;97322.03;;;0.51
73685;BMP280;61985;51.070;14.064;2024-02-26T04:55:55;97321.63;;;0.49
73685;BMP280;61985;51.070;14.064;2024-02-26T04:58:21;97322.41;;;0.50
73685;BMP280;61985;51.070;14.064;2024-02-26T05:00:46;97322.03;;;0.51
73685;BMP280;61985;51.070;14.064;2024-02-26T05:03:11;97316.00;;;0.44
73685;BMP280;61985;51.070;14.064;2024-02-26T05:05:39;97315.97;;;0.47
73685;BMP280;61985;51.070;14.064;2024-02-26T05:08:05;97315.97;;;0.40
73685;BMP280;61985;51.070;14.064;2024-02-26T05:10:30;97320.56;;;0.32
73685;BMP280;61985;51.070;14.064;2024-02-26T05:12:55;97323.22;;;0.29
73685;BMP280;61985;51.070;14.064;2024-02-26T05:15:21;97328.91;;;0.27
73685;BMP280;61985;51.070;14.064;2024-02-26T05:17:46;97327.78;;;0.14
73685;BMP280;61985;51.070;14.064;2024-02-26T05:20:12;97327.78;;;0.03
73685;BMP280;61985;51.070;14.064;2024-02-26T05:22:37;97332.72;;;-0.10
73685;BMP280;61985;51.070;14.064;2024-02-26T05:25:03;97335.75;;;-0.08
73685;BMP280;61985;51.070;14.064;2024-02-26T05:27:29;97337.66;;;-0.12
73685;BMP280;61985;51.070;14.064;2024-02-26T05:29:54;97329.31;;;-0.10
73685;BMP280;61985;51.070;14.064;2024-02-26T05:32:19;97333.47;;;-0.16
73685;BMP280;61985;51.070;14.064;2024-02-26T05:34:45;97337.97;;;-0.42
73685;BMP280;61985;51.070;14.064;2024-02-26T05:37:10;97327.00;;;-0.51
73685;BMP280;61985;51.070;14.064;2024-02-26T05:39:36;97328.88;;;-0.56
73685;BMP280;61985;51.070;14.064;2024-02-26T05:42:02;97330.03;;;-0.49
73685;BMP280;61985;51.070;14.064;2024-02-26T05:44:28;97333.81;;;-0.54
73685;BMP280;61985;51.070;14.064;2024-02-26T05:46:53;97330.38;;;-0.58
73685;BMP280;61985;51.070;14.064;2024-02-26T05:49:19;97334.19;;;-0.52
73685;BMP280;61985;51.070;14.064;2024-02-26T05:51:44;97339.09;;;-0.47
73685;BMP280;61985;51.070;14.064;2024-02-26T05:54:09;97333.44;;;-0.49
73685;BMP280;61985;51.070;14.064;2024-02-26T05:56:35;97333.41;;;-0.56
73685;BMP280;61985;51.070;14.064;2024-02-26T05:59:01;97341.00;;;-0.51
73685;BMP280;61985;51.070;14.064;2024-02-26T06:01:26;97348.56;;;-0.49
73685;BMP280;61985;51.070;14.064;2024-02-26T06:03:51;97344.38;;;-0.65
73685;BMP280;61985;51.070;14.064;2024-02-26T06:06:17;97342.47;;;-0.64
73685;BMP280;61985;51.070;14.064;2024-02-26T06:08:43;97357.59;;;-0.61
73685;BMP280;61985;51.070;14.064;2024-02-26T06:11:09;97358.72;;;-0.66
73685;BMP280;61985;51.070;14.064;2024-02-26T06:13:35;97356.84;;;-0.62
73685;BMP280;61985;51.070;14.064;2024-02-26T06:16:00;97350.44;;;-0.57
73685;BMP280;61985;51.070;14.064;2024-02-26T06:18:26;97344.75;;;-0.59
73685;BMP280;61985;51.070;14.064;2024-02-26T06:20:51;97352.31;;;-0.50
73685;BMP280;61985;51.070;14.064;2024-02-26T06:23:17;97351.56;;;-0.62
73685;BMP280;61985;51.070;14.064;2024-02-26T06:25:42;97342.84;;;-0.62
73685;BMP280;61985;51.070;14.064;2024-02-26T06:28:08;97349.22;;;-0.78
73685;BMP280;61985;51.070;14.064;2024-02-26T06:30:33;97354.94;;;-0.65
73685;BMP280;61985;51.070;14.064;2024-02-26T06:32:59;97359.13;;;-0.57
73685;BMP280;61985;51.070;14.064;2024-02-26T06:35:25;97352.72;;;-0.45
73685;BMP280;61985;51.070;14.064;2024-02-26T06:37:50;97354.28;;;-0.22
73685;BMP280;61985;51.070;14.064;2024-02-26T06:40:18;97353.53;;;-0.23
73685;BMP280;61985;51.070;14.064;2024-02-26T06:42:44;97347.09;;;-0.22
73685;BMP280;61985;51.070;14.064;2024-02-26T06:45:09;97347.09;;;-0.07
73685;BMP280;61985;51.070;14.064;2024-02-26T06:47:35;97351.25;;;0.12
73685;BMP280;61985;51.070;14.064;2024-02-26T06:50:00;97350.09;;;0.27
73685;BMP280;61985;51.070;14.064;2024-02-26T06:52:26;97353.84;;;0.41
73685;BMP280;61985;51.070;14.064;2024-02-26T06:54:52;97356.88;;;0.50
73685;BMP280;61985;51.070;14.064;2024-02-26T06:57:19;97345.09;;;0.65
73685;BMP280;61985;51.070;14.064;2024-02-26T06:59:44;97352.25;;;0.79
73685;BMP280;61985;51.070;14.064;2024-02-26T07:02:15;97346.53;;;0.92
73685;BMP280;61985;51.070;14.064;2024-02-26T07:04:41;97343.00;;;1.16
73685;BMP280;61985;51.070;14.064;2024-02-26T07:07:07;97352.84;;;1.16
73685;BMP280;61985;51.070;14.064;2024-02-26T07:09:34;97358.09;;;1.30
73685;BMP280;61985;51.070;14.064;2024-02-26T07:11:59;97351.28;;;1.29
73685;BMP280;61985;51.070;14.064;2024-02-26T07:14:25;97359.91;;;1.40
73685;BMP280;61985;51.070;14.064;2024-02-26T07:16:50;97360.97;;;1.54
73685;BMP280;61985;51.070;14.064;2024-02-26T07:19:16;97359.72;;;1.69
73685;BMP280;61985;51.070;14.064;2024-02-26T07:21:41;97372.16;;;1.83
73685;BMP280;61985;51.070;14.064;2024-02-26T07:24:07;97358.38;;;1.95
73685;BMP280;61985;51.070;14.064;2024-02-26T07:26:32;97362.03;;;2.12
73685;BMP280;61985;51.070;14.064;2024-02-26T07:28:57;97354.69;;;2.31
73685;BMP280;61985;51.070;14.064;2024-02-26T07:31:23;97360.16;;;2.47
73685;BMP280;61985;51.070;14.064;2024-02-26T07:33:48;97365.31;;;2.65
73685;BMP280;61985;51.070;14.064;2024-02-26T07:36:14;97359.81;;;2.80
73685;BMP280;61985;51.070;14.064;2024-02-26T07:38:39;97362.34;;;2.90
73685;BMP280;61985;51.070;14.064;2024-02-26T07:41:05;97353.63;;;3.17
73685;BMP280;61985;51.070;14.064;2024-02-26T07:43:30;97363.13;;;3.18
73685;BMP280;61985;51.070;14.064;2024-02-26T07:45:56;97356.13;;;3.28
73685;BMP280;61985;51.070;14.064;2024-02-26T07:48:21;97351.84;;;3.38
73685;BMP280;61985;51.070;14.064;2024-02-26T07:50:47;97359.69;;;3.49
73685;BMP280;61985;51.070;14.064;2024-02-26T07:53:13;97360.81;;;3.75
73685;BMP280;61985;51.070;14.064;2024-02-26T07:55:38;97362.00;;;3.94
73685;BMP280;61985;51.070;14.064;2024-02-26T07:58:04;97363.31;;;4.06
73685;BMP280;61985;51.070;14.064;2024-02-26T08:00:29;97361.50;;;4.23
73685;BMP280;61985;51.070;14.064;2024-02-26T08:02:55;97362.50;;;4.52
73685;BMP280;61985;51.070;14.064;2024-02-26T08:05:20;97365.81;;;4.76
73685;BMP280;61985;51.070;14.064;2024-02-26T08:07:45;97365.38;;;4.98
73685;BMP280;61985;51.070;14.064;2024-02-26T08:10:11;97365.44;;;5.15
73685;BMP280;61985;51.070;14.064;2024-02-26T08:12:36;97370.59;;;5.38
73685;BMP280;61985;51.070;14.064;2024-02-26T08:15:02;97376.78;;;5.35
73685;BMP280;61985;51.070;14.064;2024-02-26T08:17:28;97375.03;;;5.45
73685;BMP280;61985;51.070;14.064;2024-02-26T08:19:53;97379.13;;;5.49
73685;BMP280;61985;51.070;14.064;2024-02-26T08:22:19;97377.03;;;5.57
73685;BMP280;61985;51.070;14.064;2024-02-26T08:24:44;97376.97;;;5.61
73685;BMP280;61985;51.070;14.064;2024-02-26T08:27:10;97387.31;;;5.75
73685;BMP280;61985;51.070;14.064;2024-02-26T08:29:35;97379.63;;;5.77
73685;BMP280;61985;51.070;14.064;2024-02-26T08:32:01;97391.88;;;5.91
73685;BMP280;61985;51.070;14.064;2024-02-26T08:34:26;97399.16;;;6.07
73685;BMP280;61985;51.070;14.064;2024-02-26T08:36:52;97400.22;;;6.10
73685;BMP280;61985;51.070;14.064;2024-02-26T08:39:17;97399.63;;;6.18
73685;BMP280;61985;51.070;14.064;2024-02-26T08:41:44;97407.31;;;6.16
73685;BMP280;61985;51.070;14.064;2024-02-26T08:44:10;97413.25;;;6.24
73685;BMP280;61985;51.070;14.064;2024-02-26T08:46:35;97407.78;;;6.28
73685;BMP280;61985;51.070;14.064;2024-02-26T08:49:00;97408.09;;;6.30
73685;BMP280;61985;51.070;14.064;2024-02-26T08:51:26;97404.09;;;6.38
73685;BMP280;61985;51.070;14.064;2024-02-26T08:53:51;97413.00;;;6.48
73685;BMP280;61985;51.070;14.064;2024-02-26T08:56:17;97401.63;;;6.43
73685;BMP280;61985;51.070;14.064;2024-02-26T08:58:43;97403.59;;;6.56
73685;BMP280;61985;51.070;14.064;2024-02-26T09:01:09;97402.28;;;6.48
73685;BMP280;61985;51.070;14.064;2024-02-26T09:03:34;97402.97;;;6.52
73685;BMP280;61985;51.070;14.064;2024-02-26T09:05:59;97397.63;;;6.52
73685;BMP280;61985;51.070;14.064;2024-02-26T09:08:25;97395.81;;;6.61
73685;BMP280;61985;51.070;14.064;2024-02-26T09:10:51;97398.47;;;6.61
73685;BMP280;61985;51.070;14.064;2024-02-26T09:13:17;97398.31;;;6.81
73685;BMP280;61985;51.070;14.064;2024-02-26T09:15:43;97396.50;;;6.78
73685;BMP280;61985;51.070;14.064;2024-02-26T09:18:09;97413.53;;;6.97
73685;BMP280;61985;51.070;14.064;2024-02-26T09:20:35;97412.78;;;6.97
73685;BMP280;61985;51.070;14.064;2024-02-26T09:23:00;97409.56;;;7.15
73685;BMP280;61985;51.070;14.064;2024-02-26T09:25:26;97413.88;;;7.12
73685;BMP280;61985;51.070;14.064;2024-02-26T09:27:51;97405.09;;;7.25
73685;BMP280;61985;51.070;14.064;2024-02-26T09:30:17;97404.31;;;7.24
73685;BMP280;61985;51.070;14.064;2024-02-26T09:32:46;97409.59;;;7.28
73685;BMP280;61985;51.070;14.064;2024-02-26T09:35:11;97397.22;;;7.30
73685;BMP280;61985;51.070;14.064;2024-02-26T09:37:38;97403.03;;;7.42
73685;BMP280;61985;51.070;14.064;2024-02-26T09:40:04;97409.38;;;7.48
73685;BMP280;61985;51.070;14.064;2024-02-26T09:42:31;97408.81;;;7.53
73685;BMP280;61985;51.070;14.064;2024-02-26T09:44:59;97402.25;;;7.54
73685;BMP280;61985;51.070;14.064;2024-02-26T09:47:28;97397.38;;;7.52
73685;BMP280;61985;51.070;14.064;2024-02-26T09:49:56;97398.72;;;7.44
73685;BMP280;61985;51.070;14.064;2024-02-26T09:52:23;97401.63;;;7.50
73685;BMP280;61985;51.070;14.064;2024-02-26T09:54:49;97404.72;;;7.61
73685;BMP280;61985;51.070;14.064;2024-02-26T09:57:16;97398.81;;;7.66
73685;BMP280;61985;51.070;14.064;2024-02-26T09:59:42;97401.81;;;7.68
73685;BMP280;61985;51.070;14.064;2024-02-26T10:02:13;97404.38;;;7.85
73685;BMP280;61985;51.070;14.064;2024-02-26T10:04:42;97397.19;;;7.82
73685;BMP280;61985;51.070;14.064;2024-02-26T10:07:12;97413.47;;;7.87
73685;BMP280;61985;51.070;14.064;2024-02-26T10:09:38;97414.53;;;7.90
73685;BMP280;61985;51.070;14.064;2024-02-26T10:12:08;97419.97;;;7.99
73685;BMP280;61985;51.070;14.064;2024-02-26T10:14:34;97424.34;;;8.06
73685;BMP280;61985;51.070;14.064;2024-02-26T10:17:00;97425.66;;;8.23
73685;BMP280;61985;51.070;14.064;2024-02-26T10:19:29;97431.59;;;8.18
73685;BMP280;61985;51.070;14.064;2024-02-26T10:22:00;97434.28;;;8.18
73685;BMP280;61985;51.070;14.064;2024-02-26T10:24:26;97434.00;;;8.38
73685;BMP280;61985;51.070;14.064;2024-02-26T10:26:54;97437.97;;;8.33
73685;BMP280;61985;51.070;14.064;2024-02-26T10:29:20;97439.22;;;8.20
73685;BMP280;61985;51.070;14.064;2024-02-26T10:31:46;97428.13;;;8.08
73685;BMP280;61985;51.070;14.064;2024-02-26T10:34:11;97429.78;;;8.15
73685;BMP280;61985;51.070;14.064;2024-02-26T10:36:38;97435.59;;;8.13
73685;BMP280;61985;51.070;14.064;2024-02-26T10:39:06;97426.75;;;8.26
73685;BMP280;61985;51.070;14.064;2024-02-26T10:41:33;97428.94;;;8.40
73685;BMP280;61985;51.070;14.064;2024-02-26T10:43:59;97429.47;;;8.57
73685;BMP280;61985;51.070;14.064;2024-02-26T10:46:25;97438.84;;;8.74
73685;BMP280;61985;51.070;14.064;2024-02-26T10:48:52;97436.66;;;8.82
73685;BMP280;61985;51.070;14.064;2024-02-26T10:51:27;97440.53;;;8.81
73685;BMP280;61985;51.070;14.064;2024-02-26T10:53:55;97440.31;;;8.75
73685;BMP280;61985;51.070;14.064;2024-02-26T10:56:25;97442.84;;;8.70
73685;BMP280;61985;51.070;14.064;2024-02-26T10:58:53;97450.72;;;8.96
73685;BMP280;61985;51.070;14.064;2024-02-26T11:01:19;97447.06;;;9.02
73685;BMP280;61985;51.070;14.064;2024-02-26T11:03:47;97441.06;;;8.98
73685;BMP280;61985;51.070;14.064;2024-02-26T11:06:15;97437.53;;;8.79
73685;BMP280;61985;51.070;14.064;2024-02-26T11:09:01;97435.59;;;8.80
73685;BMP280;61985;51.070;14.064;2024-02-26T11:11:29;97433.53;;;8.84
73685;BMP280;61985;51.070;14.064;2024-02-26T11:14:02;97429.19;;;8.86
73685;BMP280;61985;51.070;14.064;2024-02-26T11:16:34;97429.41;;;8.92
73685;BMP280;61985;51.070;14.064;2024-02-26T11:19:01;97425.69;;;8.99
73685;BMP280;61985;51.070;14.064;2024-02-26T11:21:29;97423.91;;;9.05
73685;BMP280;61985;51.070;14.064;2024-02-26T11:24:05;97422.69;;;8.97
73685;BMP280;61985;51.070;14.064;2024-02-26T11:26:33;97430.94;;;9.02
73685;BMP280;61985;51.070;14.064;2024-02-26T11:28:59;97417.28;;;8.87
73685;BMP280;61985;51.070;14.064;2024-02-26T11:31:26;97418.69;;;9.01
73685;BMP280;61985;51.070;14.064;2024-02-26T11:33:53;97420.50;;;9.13
73685;BMP280;61985;51.070;14.064;2024-02-26T11:36:19;97424.13;;;9.20
73685;BMP280;61985;51.070;14.064;2024-02-26T11:38:46;97426.09;;;9.28
73685;BMP280;61985;51.070;14.064;2024-02-26T11:41:15;97437.59;;;9.29
73685;BMP280;61985;51.070;14.064;2024-02-26T11:46:27;97430.94;;;9.52
73685;BMP280;61985;51.070;14.064;2024-02-26T11:48:58;97429.44;;;9.60
73685;BMP280;61985;51.070;14.064;2024-02-26T11:51:25;97431.28;;;9.73
73685;BMP280;61985;51.070;14.064;2024-02-26T11:53:51;97427.69;;;9.85
73685;BMP280;61985;51.070;14.064;2024-02-26T11:58:46;97420.38;;;9.76
73685;BMP280;61985;51.070;14.064;2024-02-26T12:04:04;97422.31;;;9.66
73685;BMP280;61985;51.070;14.064;2024-02-26T12:06:30;97413.63;;;9.71
73685;BMP280;61985;51.070;14.064;2024-02-26T12:08:56;97417.53;;;9.80
73685;BMP280;61985;51.070;14.064;2024-02-26T12:11:21;97423.66;;;9.89
73685;BMP280;61985;51.070;14.064;2024-02-26T12:13:47;97410.94;;;9.81
73685;BMP280;61985;51.070;14.064;2024-02-26T12:16:36;97418.28;;;9.80
73685;BMP280;61985;51.070;14.064;2024-02-26T12:19:07;97424.09;;;9.79
73685;BMP280;61985;51.070;14.064;2024-02-26T12:21:36;97424.38;;;9.81
73685;BMP280;61985;51.070;14.064;2024-02-26T12:24:10;97425.31;;;9.87
73685;BMP280;61985;51.070;14.064;2024-02-26T12:26:37;97423.84;;;9.86
73685;BMP280;61985;51.070;14.064;2024-02-26T12:29:02;97426.53;;;9.86
73685;BMP280;61985;51.070;14.064;2024-02-26T12:31:28;97434.41;;;9.80
73685;BMP280;61985;51.070;14.064;2024-02-26T12:33:54;97436.34;;;9.80
73685;BMP280;61985;51.070;14.064;2024-02-26T12:36:21;97435.59;;;9.88
73685;BMP280;61985;51.070;14.064;2024-02-26T12:38:49;97437.72;;;9.84
73685;BMP280;61985;51.070;14.064;2024-02-26T12:41:16;97436.81;;;9.78
73685;BMP280;61985;51.070;14.064;2024-02-26T12:43:41;97437.28;;;9.77
73685;BMP280;61985;51.070;14.064;2024-02-26T12:46:06;97440.53;;;9.90
73685;BMP280;61985;51.070;14.064;2024-02-26T12:48:32;97437.41;;;9.91
73685;BMP280;61985;51.070;14.064;2024-02-26T12:50:57;97433.97;;;9.82
73685;BMP280;61985;51.070;14.064;2024-02-26T12:53:23;97444.44;;;9.89
73685;BMP280;61985;51.070;14.064;2024-02-26T12:55:49;97433.69;;;9.89
73685;BMP280;61985;51.070;14.064;2024-02-26T12:58:14;97442.34;;;9.93
73685;BMP280;61985;51.070;14.064;2024-02-26T13:00:40;97439.22;;;9.85
73685;BMP280;61985;51.070;14.064;2024-02-26T13:03:06;97444.88;;;9.78
73685;BMP280;61985;51.070;14.064;2024-02-26T13:05:32;97448.78;;;9.77
73685;BMP280;61985;51.070;14.064;2024-02-26T13:07:58;97450.38;;;9.65
73685;BMP280;61985;51.070;14.064;2024-02-26T13:10:23;97449.78;;;9.61
73685;BMP280;61985;51.070;14.064;2024-02-26T13:12:50;97448.44;;;9.57
73685;BMP280;61985;51.070;14.064;2024-02-26T13:15:17;97449.75;;;9.52
73685;BMP280;61985;51.070;14.064;2024-02-26T13:17:46;97447.81;;;9.52
73685;BMP280;61985;51.070;14.064;2024-02-26T13:20:12;97446.19;;;9.55
73685;BMP280;61985;51.070;14.064;2024-02-26T13:22:38;97455.72;;;9.56
73685;BMP280;61985;51.070;14.064;2024-02-26T13:25:04;97452.75;;;9.54
73685;BMP280;61985;51.070;14.064;2024-02-26T13:27:29;97460.22;;;9.59
73685;BMP280;61985;51.070;14.064;2024-02-26T13:30:03;97461.13;;;9.65
73685;BMP280;61985;51.070;14.064;2024-02-26T13:32:32;97459.66;;;9.64
73685;BMP280;61985;51.070;14.064;2024-02-26T13:35:11;97456.09;;;9.67
73685;BMP280;61985;51.070;14.064;2024-02-26T13:37:38;97465.34;;;9.66
73685;BMP280;61985;51.070;14.064;2024-02-26T13:40:08;97470.72;;;9.66
73685;BMP280;61985;51.070;14.064;2024-02-26T13:42:37;97466.06;;;9.67
73685;BMP280;61985;51.070;14.064;2024-02-26T13:45:03;97469.19;;;9.65
73685;BMP280;61985;51.070;14.064;2024-02-26T13:47:32;97470.25;;;9.59
73685;BMP280;61985;51.070;14.064;2024-02-26T13:49:57;97473.22;;;9.61
73685;BMP280;61985;51.070;14.064;2024-02-26T13:52:23;97473.69;;;9.68
73685;BMP280;61985;51.070;14.064;2024-02-26T13:54:48;97469.38;;;9.71
73685;BMP280;61985;51.070;14.064;2024-02-26T13:57:14;97462.94;;;9.68
73685;BMP280;61985;51.070;14.064;2024-02-26T13:59:39;97467.13;;;9.69
73685;BMP280;61985;51.070;14.064;2024-02-26T14:02:08;97468.91;;;9.63
73685;BMP280;61985;51.070;14.064;2024-02-26T14:04:33;97466.94;;;9.64
73685;BMP280;61985;51.070;14.064;2024-02-26T14:06:59;97471.91;;;9.65
73685;BMP280;61985;51.070;14.064;2024-02-26T14:09:24;97475.94;;;9.70